»·PEaware :: N735SN L52-L88

N735SN :: L52-L88

FLIGHT INFORMATION

Flight Status: Arrived
Operator: Privately registered:
United States
More flights under this callsign
Pilot: Peter N. (21020)
Aircraft: CESSNA 172 SKYHAWK
(C172)
More flights by this aircraft type
Origin: L52 Oceano Co
United States
Destination: L88 New Cuyama
United States
More flights between these airports :: More routes between these airports
Route:
File this flight plan on PilotEdge
Remarks: Sample flight plan
Altitude:
(Current/Filed)
5,500ft
Speed:
(Current/Filed)
115kts
Departed: 08-Nov-18 06:00 PM
Arrived: 08-Nov-18 06:22 PM
Distance/Time
Traveled:
47nm/0:22
Distance/Time
To Go:
Arrived

Flight Plot

Page will automatically refresh every two minutes.


Map Options




Map Legend


Flown Route
Filed Route
Departure Airport
Arrival Airport
Navaid (VOR, NDB)
Fix

Horizontal Profiles

Position Reports

Time Latitude Longitude Heading Altitude Ground
Speed
08-Nov-18 17:12 34.942611 -119.690541 24 2156ft 0kts
08-Nov-18 17:13 34.942611 -119.690541 24 2156ft 0kts
08-Nov-18 17:14 34.942611 -119.690541 24 2156ft 0kts
08-Nov-18 17:15 34.942611 -119.690541 24 2156ft 0kts
08-Nov-18 17:16 34.942611 -119.690541 24 2156ft 0kts
08-Nov-18 17:17 34.942611 -119.690541 24 2156ft 0kts
08-Nov-18 17:18 34.942611 -119.690541 24 2156ft 0kts
08-Nov-18 17:19 34.942611 -119.690541 24 2156ft 0kts
08-Nov-18 17:20 34.942611 -119.690541 24 2156ft 0kts
08-Nov-18 17:21 34.942611 -119.690541 24 2156ft 0kts
08-Nov-18 17:22 34.942611 -119.690541 24 2156ft 0kts
08-Nov-18 17:23 34.942611 -119.690541 24 2156ft 0kts
08-Nov-18 17:24 34.942611 -119.690541 24 2156ft 0kts
08-Nov-18 17:25 34.942611 -119.690541 24 2156ft 0kts
08-Nov-18 17:26 34.942611 -119.690541 24 2156ft 0kts
08-Nov-18 17:27 34.942611 -119.690541 24 2156ft 0kts
08-Nov-18 17:28 34.942611 -119.690541 24 2156ft 0kts
08-Nov-18 17:29 34.942611 -119.690541 24 2156ft 0kts
08-Nov-18 17:30 34.942611 -119.690541 24 2156ft 0kts
08-Nov-18 17:31 34.942611 -119.690541 24 2156ft 0kts
08-Nov-18 17:32 34.942611 -119.690541 24 2156ft 0kts
08-Nov-18 17:33 34.942611 -119.690541 24 2156ft 0kts
08-Nov-18 17:34 34.942611 -119.690541 24 2156ft 0kts
08-Nov-18 17:35 34.942611 -119.690541 24 2156ft 0kts
08-Nov-18 17:36 34.942611 -119.690541 24 2156ft 0kts
08-Nov-18 17:37 34.942611 -119.690541 24 2156ft 0kts
08-Nov-18 17:38 34.942611 -119.690541 24 2156ft 0kts
08-Nov-18 17:39 34.942611 -119.690541 24 2156ft 0kts
08-Nov-18 17:40 34.942579 -119.691065 114 2155ft 0kts
08-Nov-18 17:41 34.942579 -119.691065 114 2155ft 0kts
08-Nov-18 17:42 34.942579 -119.691065 114 2155ft 0kts
08-Nov-18 17:50 34.942643 -119.690547 3 2156ft 0kts
08-Nov-18 17:51 34.942643 -119.690547 3 2156ft 0kts
08-Nov-18 17:52 34.942643 -119.690547 3 2156ft 0kts
08-Nov-18 17:53 34.942643 -119.690547 3 2156ft 0kts
08-Nov-18 17:54 34.942643 -119.690547 3 2156ft 0kts
08-Nov-18 17:55 34.942653 -119.690546 4 2156ft 0kts
08-Nov-18 17:56 34.942653 -119.690546 4 2156ft 0kts
08-Nov-18 17:57 34.942653 -119.690546 4 2156ft 0kts
08-Nov-18 17:58 34.942653 -119.690546 4 2156ft 0kts
08-Nov-18 17:59 34.942653 -119.690546 4 2156ft 0kts
08-Nov-18 18:00 34.942879 -119.690747 306 2155ft 1kts
08-Nov-18 18:01 34.942615 -119.691256 210 2155ft 0kts
08-Nov-18 18:02 34.942616 -119.691256 210 2155ft 0kts
08-Nov-18 18:03 34.938379 -119.681305 111 2284ft 77kts
08-Nov-18 18:04 34.948037 -119.673341 294 3082ft 88kts
08-Nov-18 18:05 34.958350 -119.703354 269 3596ft 110kts
08-Nov-18 18:06 34.962933 -119.740675 283 4093ft 112kts
08-Nov-18 18:07 34.971753 -119.775635 288 4774ft 100kts
08-Nov-18 18:08 34.980691 -119.806315 289 5551ft 94kts
08-Nov-18 18:09 34.989883 -119.836360 290 6251ft 94kts
08-Nov-18 18:10 35.000162 -119.869136 290 6514ft 116kts
08-Nov-18 18:11 35.012184 -119.907153 290 6516ft 122kts
08-Nov-18 18:12 35.024310 -119.945751 290 6516ft 122kts
08-Nov-18 18:13 35.036495 -119.984664 290 6515ft 122kts
08-Nov-18 18:14 35.043813 -120.008072 290 6515ft 122kts
08-Nov-18 18:15 35.049659 -120.026788 290 6515ft 122kts
08-Nov-18 18:16 35.061784 -120.065645 290 6514ft 122kts
08-Nov-18 18:17 35.073362 -120.104697 289 6514ft 122kts
08-Nov-18 18:18 35.074323 -120.108017 289 6514ft 122kts
08-Nov-18 18:19 35.074323 -120.108017 289 6514ft 122kts
08-Nov-18 18:20 35.075855 -120.113257 289 6514ft 122kts
08-Nov-18 18:21 35.075855 -120.113257 289 6514ft 122kts
08-Nov-18 18:22 35.086654 -120.148669 290 6513ft 122kts
08-Nov-18 18:23 35.098709 -120.187608 290 6513ft 122kts
08-Nov-18 18:25 34.943921 -119.690797 202 2154ft 0kts
08-Nov-18 18:26 34.943921 -119.690797 202 2154ft 0kts
08-Nov-18 18:27 34.943921 -119.690797 202 2154ft 0kts
08-Nov-18 18:28 34.943921 -119.690797 202 2154ft 0kts
08-Nov-18 18:29 34.943921 -119.690797 202 2154ft 0kts
08-Nov-18 18:30 34.943921 -119.690797 202 2154ft 0kts

Navigation Log

Ident Type
Flight plan parsing failed, navigation log unavailable